createdAt,value
2023-03-11T19:49:14.993Z,99023.09
2023-03-11T19:51:30.429Z,99031.14
2023-03-11T19:53:58.362Z,99037.41
2023-03-11T19:56:12.959Z,99040.77
2023-03-11T19:58:25.706Z,99033.83
2023-03-11T20:00:41.669Z,99045.82
2023-03-11T20:02:51.853Z,99047.31
2023-03-11T20:05:01.766Z,99047.03
2023-03-11T20:07:11.788Z,99048.78
2023-03-11T20:09:22.431Z,99051.86
2023-03-11T20:11:30.715Z,99053.03
2023-03-11T20:13:40.315Z,99055.76
2023-03-11T20:15:49.028Z,99061.03
2023-03-11T20:17:58.451Z,99059.48
2023-03-11T20:20:07.007Z,99065.86
2023-03-11T20:22:22.672Z,99066.38
2023-03-11T20:24:32.793Z,99070.7
2023-03-11T20:26:42.415Z,99072.85
2023-03-11T20:28:58.243Z,99071.95
2023-03-11T20:31:09.412Z,99078.27
2023-03-11T20:33:23.908Z,99078.59
2023-03-11T20:35:40.197Z,99078.51
2023-03-11T20:37:53.449Z,99087.73
2023-03-11T20:40:07.623Z,99086.58
2023-03-11T20:42:16.436Z,99088.08
2023-03-11T20:44:25.787Z,99094.38
2023-03-11T20:46:36.991Z,99097.31
2023-03-11T20:48:47.363Z,99097.89
2023-03-11T20:50:57.188Z,99106.27
2023-03-11T20:53:07.440Z,99100.78
2023-03-11T20:55:19.296Z,99102.38
2023-03-11T20:57:28.435Z,99100.67
2023-03-11T20:59:38.712Z,99108.92
2023-03-11T21:01:47.476Z,99110.44
2023-03-11T21:03:55.312Z,99111.58
2023-03-11T21:06:04.392Z,99116.86
2023-03-11T21:08:13.516Z,99118.17
2023-03-11T21:10:28.321Z,99116.25
2023-03-11T21:12:45.586Z,99108.36
2023-03-11T21:14:52.930Z,99119.88
2023-03-11T21:17:01.847Z,99122.19
2023-03-11T21:19:11.626Z,99116.25
2023-03-11T21:21:20.004Z,99117.84
2023-03-11T21:23:29.977Z,99121.2
2023-03-11T21:25:41.267Z,99117.74
2023-03-11T21:27:49.334Z,99125.72
2023-03-11T21:29:58.944Z,99129.22
2023-03-11T21:32:08.470Z,99126.53
2023-03-11T21:34:17.036Z,99128.98
2023-03-11T21:36:24.952Z,99128.04
2023-03-11T21:38:33.896Z,99130.73
2023-03-11T21:40:43.615Z,99133.66
2023-03-11T21:42:51.956Z,99134.3
2023-03-11T21:44:59.086Z,99137.38
2023-03-11T21:47:08.016Z,99139.77
2023-03-11T21:49:17.694Z,99133.27
2023-03-11T21:51:25.211Z,99142.64
2023-03-11T21:53:32.823Z,99140.72
2023-03-11T21:55:40.356Z,99146.66
2023-03-11T21:57:47.699Z,99151.05
2023-03-11T21:59:55.240Z,99144.5
2023-03-11T22:02:03.235Z,99152.05
2023-03-11T22:04:11.125Z,99146.73
2023-03-11T22:06:17.736Z,99154.25
2023-03-11T22:08:25.214Z,99154.25
2023-03-11T22:10:32.851Z,99157.02
2023-03-11T22:12:39.814Z,99148.16
2023-03-11T22:14:46.948Z,99163
2023-03-11T22:16:53.665Z,99166.99
2023-03-11T22:19:00.943Z,99168.22
2023-03-11T22:21:10.807Z,99169.88
2023-03-11T22:23:17.749Z,99165.89
2023-03-11T22:25:23.990Z,99163.37
2023-03-11T22:27:30.165Z,99174.34
2023-03-11T22:29:36.441Z,99176.48
2023-03-11T22:31:42.634Z,99171.36
2023-03-11T22:33:49.582Z,99177
2023-03-11T22:35:56.998Z,99179.11
2023-03-11T22:38:04.008Z,99177.95
2023-03-11T22:40:10.652Z,99182.34
2023-03-11T22:42:17.168Z,99182.81
2023-03-11T22:44:23.282Z,99190.73
2023-03-11T22:46:29.186Z,99187.08
2023-03-11T22:48:35.382Z,99191.75
2023-03-11T22:50:41.492Z,99193.83
2023-03-11T22:52:48.002Z,99200.88
2023-03-11T22:54:54.391Z,99198.89
2023-03-11T22:57:00.556Z,99205.22
2023-03-11T22:59:06.255Z,99200.89
2023-03-11T23:01:13.400Z,99207.39
2023-03-11T23:03:19.592Z,99211.2
2023-03-11T23:05:26.796Z,99207.4
2023-03-11T23:07:33.536Z,99203.17
2023-03-11T23:09:39.442Z,99205.59
2023-03-11T23:11:45.682Z,99207.47
2023-03-11T23:13:51.168Z,99208.23
2023-03-11T23:15:57.319Z,99207.08
2023-03-11T23:18:03.068Z,99214.31
2023-03-11T23:20:08.485Z,99221.81
2023-03-11T23:22:13.948Z,99217.25
2023-03-11T23:24:19.408Z,99220.07
2023-03-11T23:26:24.962Z,99220.48
2023-03-11T23:28:30.764Z,99221.06
2023-03-11T23:30:37.079Z,99222.67
2023-03-11T23:32:43.347Z,99216.84
2023-03-11T23:34:49.903Z,99221.9
2023-03-11T23:36:56.025Z,99220.8
2023-03-11T23:39:02.299Z,99224.72
2023-03-11T23:41:07.879Z,99229.13
2023-03-11T23:43:13.619Z,99227.2
2023-03-11T23:45:18.835Z,99230.25
2023-03-11T23:47:24.711Z,99234.14
2023-03-11T23:49:30.471Z,99232.3
2023-03-11T23:51:36.318Z,99234.45
2023-03-11T23:53:42.368Z,99237.17
2023-03-11T23:55:48.110Z,99231.7
2023-03-11T23:57:53.698Z,99234.16
